Terminal Aerodrome Forecast
Issued by NWS Austin/San Antonio, TX

Home | Current Version | Previous Version | Text Only | Print | Product List | Glossary On
Versions: 1 2 3 4 5 6 7 8 9 10 11 12 13
039
FTUS44 KEWX 260209 AAA
TAFAUS
TAF AMD
KAUS 260209Z 2602/2706 15014KT P6SM BKN015
     FM260500 18017KT P6SM OVC008
     FM261500 26017G27KT P6SM FEW250
     FM261800 31020G30KT P6SM FEW250
     FM270300 35006KT P6SM SCT250=

USA.gov is the U.S. government's official web portal to all federal, state and local government web resources and services.